Time;durP1;ratioP1;P1;durP2;ratioP2;P2;SDS_P1;SDS_P2;PMS_P1;PMS_P2;Temp;Humidity;BMP_temperature;BMP_pressure;BME280_temperature;BME280_humidity;BME280_pressure;Samples;Min_cycle;Max_cycle;Signal;HPM_P1;HPM_P2
2024/04/01 00:00:39;;;;;;;1.48;0.88;;;11.80;99.90;;;;;;5057865;28;20454;-78
2024/04/01 00:03:05;;;;;;;2.50;1.15;;;11.70;99.90;;;;;;5054783;28;20033;-78
2024/04/01 00:05:31;;;;;;;4.68;1.13;;;11.80;99.90;;;;;;5057336;28;20028;-76
2024/04/01 00:07:56;;;;;;;6.10;1.65;;;11.80;99.90;;;;;;5038884;28;20497;-75
2024/04/01 00:10:23;;;;;;;1.88;1.00;;;11.80;99.90;;;;;;5049674;28;20029;-78
2024/04/01 00:12:49;;;;;;;3.03;1.20;;;11.80;99.90;;;;;;5059151;28;20033;-76
2024/04/01 00:15:16;;;;;;;1.92;0.80;;;11.70;99.90;;;;;;5057185;28;20039;-79
2024/04/01 00:17:42;;;;;;;2.40;1.17;;;11.70;99.90;;;;;;5064772;28;20043;-77
2024/04/01 00:20:08;;;;;;;1.98;1.05;;;11.60;99.90;;;;;;5050972;28;20475;-78
2024/04/01 00:22:34;;;;;;;1.85;1.25;;;11.60;99.90;;;;;;5060697;28;20060;-76
2024/04/01 00:25:00;;;;;;;2.85;1.58;;;11.70;99.90;;;;;;5060971;28;20111;-77
2024/04/01 00:27:25;;;;;;;3.42;1.30;;;11.60;99.90;;;;;;5043999;28;20403;-77
2024/04/01 00:29:51;;;;;;;4.05;1.85;;;11.60;99.90;;;;;;5049769;28;20054;-79
2024/04/01 00:32:17;;;;;;;2.47;1.23;;;11.60;99.90;;;;;;5044156;28;20028;-78
2024/04/01 00:34:42;;;;;;;4.75;1.77;;;11.60;99.90;;;;;;5077406;28;20093;-79
2024/04/01 00:37:08;;;;;;;3.50;1.23;;;11.50;99.90;;;;;;5077578;28;20052;-77
2024/04/01 00:39:33;;;;;;;5.15;1.27;;;11.60;99.90;;;;;;5041002;28;20032;-78
2024/04/01 00:41:59;;;;;;;1.75;0.95;;;11.70;99.90;;;;;;5038662;28;20032;-79
2024/04/01 00:44:25;;;;;;;1.15;0.85;;;11.70;99.90;;;;;;5059669;28;20059;-78
2024/04/01 00:46:51;;;;;;;3.65;0.93;;;11.70;99.90;;;;;;5078064;28;20036;-79
2024/04/01 00:49:19;;;;;;;3.15;0.98;;;11.60;99.90;;;;;;5076757;28;20515;-76
2024/04/01 00:51:45;;;;;;;2.67;1.08;;;11.60;99.90;;;;;;5076804;28;20024;-76
2024/04/01 00:54:12;;;;;;;1.90;0.60;;;11.70;99.90;;;;;;5083305;28;20039;-77
2024/04/01 00:56:40;;;;;;;4.25;1.15;;;11.70;99.90;;;;;;5056536;28;20417;-78
2024/04/01 00:59:06;;;;;;;2.25;0.90;;;11.60;99.90;;;;;;5094310;28;20016;-79
2024/04/01 01:01:34;;;;;;;1.90;0.90;;;11.60;99.90;;;;;;5074485;28;20059;-77
2024/04/01 01:04:00;;;;;;;1.95;0.80;;;11.70;99.90;;;;;;5093167;28;20031;-78
2024/04/01 01:06:26;;;;;;;5.75;0.98;;;11.80;99.90;;;;;;5060613;28;20075;-78
2024/04/01 01:08:53;;;;;;;3.53;0.95;;;11.90;99.90;;;;;;5091227;28;20073;-78
2024/04/01 01:11:19;;;;;;;1.95;0.70;;;11.80;99.90;;;;;;5089224;28;20112;-79
2024/04/01 01:13:44;;;;;;;1.85;0.90;;;11.80;99.90;;;;;;5074156;28;20517;-77
2024/04/01 01:16:10;;;;;;;3.47;1.17;;;11.60;99.90;;;;;;5041847;28;20169;-77
2024/04/01 01:18:36;;;;;;;4.95;1.13;;;11.60;99.90;;;;;;5094059;28;20075;-78
2024/04/01 01:21:03;;;;;;;1.70;1.13;;;11.70;99.90;;;;;;5077059;28;20049;-78
2024/04/01 01:23:28;;;;;;;2.97;0.80;;;11.50;99.90;;;;;;5059281;28;20050;-78
2024/04/01 01:25:54;;;;;;;1.48;0.70;;;11.50;99.90;;;;;;5060156;28;20028;-77
2024/04/01 01:28:21;;;;;;;3.15;1.08;;;11.40;99.90;;;;;;5077058;28;20032;-75
2024/04/01 01:30:46;;;;;;;1.90;0.73;;;11.40;99.90;;;;;;5076678;28;20028;-77
2024/04/01 01:33:12;;;;;;;2.35;1.10;;;11.30;99.90;;;;;;5092814;28;20077;-77
2024/04/01 01:35:39;;;;;;;2.22;0.60;;;11.30;99.90;;;;;;5095272;28;20020;-75
2024/04/01 01:38:05;;;;;;;3.30;1.30;;;11.10;99.90;;;;;;5088268;28;20062;-75
2024/04/01 01:40:31;;;;;;;1.67;0.98;;;11.30;99.90;;;;;;5079272;28;20028;-76
2024/04/01 01:42:57;;;;;;;3.67;0.90;;;11.40;99.90;;;;;;5080973;28;20039;-76
2024/04/01 01:45:23;;;;;;;1.27;0.73;;;11.40;99.90;;;;;;5047951;28;20857;-76
2024/04/01 01:47:48;;;;;;;2.67;0.95;;;11.40;99.90;;;;;;5081502;28;20032;-77
2024/04/01 01:50:14;;;;;;;1.60;0.70;;;11.20;99.90;;;;;;5097632;28;20028;-76
2024/04/01 01:52:40;;;;;;;3.40;0.80;;;11.30;99.90;;;;;;5039340;28;20074;-77
2024/04/01 01:55:06;;;;;;;4.40;1.00;;;11.50;99.90;;;;;;5058923;28;20047;-76
2024/04/01 01:57:34;;;;;;;0.75;0.68;;;11.40;99.90;;;;;;5060395;28;20033;-76
2024/04/01 02:00:00;;;;;;;1.20;0.60;;;11.40;99.90;;;;;;5071378;28;20393;-75
2024/04/01 02:02:25;;;;;;;2.85;0.65;;;11.40;99.90;;;;;;5075600;28;20032;-75
2024/04/01 02:04:51;;;;;;;1.92;1.02;;;11.20;99.90;;;;;;5076806;28;20053;-76
2024/04/01 02:07:17;;;;;;;3.35;0.82;;;11.20;99.90;;;;;;5058137;28;20033;-77
2024/04/01 02:09:43;;;;;;;1.50;0.77;;;11.30;99.90;;;;;;5039108;28;20024;-76
2024/04/01 02:12:09;;;;;;;2.35;0.90;;;11.20;99.90;;;;;;5075733;28;20065;-75
2024/04/01 02:14:38;;;;;;;2.20;1.27;;;11.10;99.90;;;;;;5072085;28;20024;-77
2024/04/01 02:17:05;;;;;;;1.35;0.95;;;11.00;99.90;;;;;;5058119;28;20044;-76
2024/04/01 02:19:35;;;;;;;3.17;1.13;;;11.00;99.90;;;;;;5075516;28;20101;-76
2024/04/01 02:22:01;;;;;;;3.33;1.00;;;11.00;99.90;;;;;;5093809;28;20020;-78
2024/04/01 02:24:27;;;;;;;1.63;1.17;;;11.10;99.90;;;;;;5091827;28;20052;-75
2024/04/01 02:26:53;;;;;;;3.20;1.48;;;11.20;99.90;;;;;;5086281;28;20373;-77
2024/04/01 02:29:19;;;;;;;1.38;1.00;;;11.20;99.90;;;;;;5078421;28;20032;-75
2024/04/01 02:31:45;;;;;;;3.47;1.42;;;11.20;99.90;;;;;;5075791;28;20024;-76
2024/04/01 02:34:11;;;;;;;3.10;1.42;;;11.20;99.90;;;;;;5067630;28;20437;-75
2024/04/01 02:36:36;;;;;;;2.50;1.20;;;11.20;99.90;;;;;;5092325;28;20523;-77
2024/04/01 02:39:05;;;;;;;4.30;1.23;;;11.30;99.90;;;;;;5075443;28;20035;-76
2024/04/01 02:41:32;;;;;;;3.65;1.58;;;11.20;99.90;;;;;;5088027;28;20024;-76
2024/04/01 02:43:58;;;;;;;5.03;1.80;;;11.10;99.90;;;;;;5062767;28;20029;-77
2024/04/01 02:46:24;;;;;;;5.70;1.88;;;11.20;99.90;;;;;;5051745;28;20032;-76
2024/04/01 02:48:50;;;;;;;5.65;1.95;;;11.10;99.90;;;;;;5049580;28;20039;-75
2024/04/01 02:51:16;;;;;;;4.05;1.63;;;11.10;99.90;;;;;;5076414;28;20473;-76
2024/04/01 02:53:47;;;;;;;5.18;2.03;;;11.10;99.90;;;;;;5074996;28;20028;-76
2024/04/01 02:56:16;;;;;;;6.80;1.80;;;11.10;99.90;;;;;;5041089;28;20025;-78
2024/04/01 02:58:45;;;;;;;4.47;2.05;;;11.00;99.90;;;;;;5054712;28;20060;-79
2024/04/01 03:01:12;;;;;;;5.32;1.85;;;11.00;99.90;;;;;;5057815;28;20107;-79
2024/04/01 03:03:38;;;;;;;7.38;2.20;;;11.10;99.90;;;;;;5061374;28;20031;-79
2024/04/01 03:06:06;;;;;;;4.82;1.80;;;11.20;99.90;;;;;;5088986;28;20025;-78
2024/04/01 03:08:32;;;;;;;3.78;1.38;;;11.30;99.90;;;;;;5072406;28;20033;-78
2024/04/01 03:11:02;;;;;;;5.65;1.60;;;11.30;99.90;;;;;;5073064;28;20027;-76
2024/04/01 03:13:28;;;;;;;3.42;1.90;;;11.30;99.90;;;;;;5054086;28;20029;-77
2024/04/01 03:15:55;;;;;;;5.57;1.58;;;11.20;99.90;;;;;;5058922;28;20039;-78
2024/04/01 03:18:22;;;;;;;7.90;1.88;;;11.40;99.90;;;;;;5059118;28;20041;-77
2024/04/01 03:20:48;;;;;;;2.83;1.63;;;11.30;99.90;;;;;;5055232;28;20025;-78
2024/04/01 03:23:14;;;;;;;6.38;1.60;;;11.30;99.90;;;;;;5075816;28;20071;-79
2024/04/01 03:25:40;;;;;;;7.03;2.17;;;11.30;99.90;;;;;;5083454;28;20027;-77
2024/04/01 03:28:06;;;;;;;5.50;2.03;;;11.40;99.90;;;;;;5092675;28;20115;-76
2024/04/01 03:30:33;;;;;;;3.58;1.73;;;11.40;99.90;;;;;;5082434;28;20036;-77
2024/04/01 03:32:59;;;;;;;3.17;1.70;;;11.40;99.90;;;;;;5081156;28;20366;-77
2024/04/01 03:35:24;;;;;;;6.63;2.13;;;11.30;99.90;;;;;;5077352;28;20244;-77
2024/04/01 03:37:50;;;;;;;2.60;1.50;;;11.30;99.90;;;;;;5074737;28;20040;-77
2024/04/01 03:40:16;;;;;;;4.10;1.70;;;11.20;99.90;;;;;;5075238;28;20031;-76
2024/04/01 03:42:41;;;;;;;4.13;1.55;;;11.20;99.90;;;;;;5072757;28;20028;-76
2024/04/01 03:45:07;;;;;;;3.35;1.90;;;11.20;99.90;;;;;;5055039;28;20031;-78
2024/04/01 03:47:37;;;;;;;7.45;2.45;;;11.20;99.90;;;;;;5056872;28;20077;-78
2024/04/01 03:50:05;;;;;;;6.20;2.30;;;11.10;99.90;;;;;;5090417;28;20023;-79
2024/04/01 03:52:35;;;;;;;6.07;2.55;;;11.00;99.90;;;;;;5061043;28;20042;-78
2024/04/01 03:55:01;;;;;;;4.93;2.03;;;11.10;99.90;;;;;;5097925;28;20108;-77
2024/04/01 03:57:27;;;;;;;4.13;2.20;;;11.10;99.90;;;;;;5078016;28;20115;-77
2024/04/01 03:59:52;;;;;;;5.05;2.80;;;11.10;99.90;;;;;;5062288;28;20032;-77
2024/04/01 04:02:18;;;;;;;6.95;2.63;;;11.10;99.90;;;;;;5076744;28;20028;-78
2024/04/01 04:04:44;;;;;;;7.22;2.28;;;11.20;99.90;;;;;;5094601;28;20059;-76
2024/04/01 04:07:09;;;;;;;7.38;2.75;;;11.20;99.90;;;;;;5061423;28;20065;-77
2024/04/01 04:09:35;;;;;;;4.28;2.13;;;11.10;99.90;;;;;;5062085;28;20043;-76
2024/04/01 04:12:01;;;;;;;7.30;2.33;;;11.10;99.90;;;;;;5040444;28;20028;-77
2024/04/01 04:14:27;;;;;;;4.97;2.25;;;11.10;99.90;;;;;;5076772;28;20520;-77
2024/04/01 04:16:53;;;;;;;3.63;1.98;;;11.10;99.90;;;;;;5076112;28;20058;-78
2024/04/01 04:19:20;;;;;;;6.97;2.65;;;11.00;99.90;;;;;;5066381;28;20085;-79
2024/04/01 04:21:46;;;;;;;5.97;2.30;;;11.00;99.90;;;;;;5078372;28;20047;-77
2024/04/01 04:24:14;;;;;;;4.70;2.47;;;11.10;99.90;;;;;;5059243;28;20052;-77
2024/04/01 04:26:40;;;;;;;5.07;2.58;;;11.10;99.90;;;;;;5078310;28;20031;-77
2024/04/01 04:29:06;;;;;;;5.15;2.20;;;11.20;99.90;;;;;;5063345;28;20040;-78
2024/04/01 04:31:32;;;;;;;3.92;2.25;;;11.10;99.90;;;;;;5078612;28;20031;-80
2024/04/01 04:33:58;;;;;;;6.10;2.30;;;11.00;99.90;;;;;;5083503;28;20065;-77
2024/04/01 04:36:24;;;;;;;4.72;2.58;;;10.90;99.90;;;;;;5066402;28;20024;-79
2024/04/01 04:38:50;;;;;;;4.35;2.75;;;10.90;99.90;;;;;;5068348;28;20041;-77
2024/04/01 04:41:20;;;;;;;5.93;2.75;;;10.80;99.90;;;;;;5067875;28;20115;-76
2024/04/01 04:43:46;;;;;;;5.72;2.78;;;10.80;99.90;;;;;;5070405;28;20028;-77
2024/04/01 04:46:12;;;;;;;6.13;2.60;;;10.70;99.90;;;;;;5091138;28;20020;-77
2024/04/01 04:48:44;;;;;;;5.90;2.35;;;10.80;99.90;;;;;;5077758;28;20086;-76
2024/04/01 04:51:11;;;;;;;5.27;3.00;;;10.70;99.90;;;;;;5061085;28;20034;-80
2024/04/01 04:53:37;;;;;;;4.43;2.92;;;10.60;99.90;;;;;;5068922;28;20024;-76
2024/04/01 04:56:04;;;;;;;6.55;2.95;;;10.60;99.90;;;;;;5076649;28;20119;-78
2024/04/01 04:58:30;;;;;;;7.45;2.72;;;10.70;99.90;;;;;;5073297;28;20443;-78
2024/04/01 05:00:56;;;;;;;3.72;2.45;;;10.60;99.90;;;;;;5076357;28;20051;-80
2024/04/01 05:03:22;;;;;;;6.20;3.30;;;10.80;99.90;;;;;;5093334;28;20055;-80
2024/04/01 05:05:48;;;;;;;12.02;2.80;;;11.00;99.90;;;;;;5060604;28;20469;-78
2024/04/01 05:08:13;;;;;;;5.40;3.08;;;11.10;99.90;;;;;;5079004;28;20552;-81
2024/04/01 05:10:39;;;;;;;7.10;2.80;;;11.00;99.90;;;;;;5077154;28;20028;-78
2024/04/01 05:13:05;;;;;;;7.43;3.15;;;11.00;99.90;;;;;;5059812;28;20161;-77
2024/04/01 05:15:30;;;;;;;5.93;2.45;;;11.10;99.90;;;;;;5041411;28;20086;-79
2024/04/01 05:17:56;;;;;;;6.72;2.83;;;11.10;99.90;;;;;;5075035;28;20045;-77
2024/04/01 05:20:23;;;;;;;4.40;2.55;;;11.20;99.90;;;;;;5063260;28;20032;-76
2024/04/01 05:22:49;;;;;;;5.35;2.50;;;11.00;99.90;;;;;;5056959;28;20406;-79
2024/04/01 05:25:15;;;;;;;6.90;2.78;;;11.00;99.90;;;;;;5058962;28;20393;-79
2024/04/01 05:27:40;;;;;;;9.55;3.72;;;11.00;99.90;;;;;;5075360;28;20029;-79
2024/04/01 05:30:10;;;;;;;4.65;2.70;;;11.00;99.90;;;;;;5077923;28;20378;-78
2024/04/01 05:32:37;;;;;;;9.35;3.03;;;11.00;99.90;;;;;;5074799;28;20078;-80
2024/04/01 05:35:05;;;;;;;6.07;2.80;;;11.00;99.90;;;;;;5071765;28;20024;-79
2024/04/01 05:37:32;;;;;;;9.57;3.28;;;10.80;99.90;;;;;;5043347;28;20093;-81
2024/04/01 05:39:58;;;;;;;5.72;3.10;;;10.70;99.90;;;;;;5069734;28;20024;-81
2024/04/01 05:42:23;;;;;;;6.95;3.35;;;10.70;99.90;;;;;;5042408;28;20033;-81
2024/04/01 05:44:49;;;;;;;7.75;3.70;;;10.80;99.90;;;;;;5074066;28;20482;-79
2024/04/01 05:47:15;;;;;;;10.15;3.83;;;10.90;99.90;;;;;;5051281;28;20067;-81
2024/04/01 05:49:41;;;;;;;8.50;3.97;;;10.80;99.90;;;;;;5067389;28;20032;-80
2024/04/01 05:52:07;;;;;;;12.35;4.05;;;10.70;99.90;;;;;;5054492;28;20021;-78
2024/04/01 05:54:33;;;;;;;8.20;3.75;;;10.70;99.90;;;;;;5072635;28;20043;-81
2024/04/01 05:57:00;;;;;;;15.45;3.33;;;10.60;99.90;;;;;;5095321;28;20028;-78
2024/04/01 05:59:26;;;;;;;7.35;3.35;;;10.50;99.90;;;;;;5061871;28;20029;-78
2024/04/01 06:01:52;;;;;;;5.93;3.08;;;10.50;99.90;;;;;;5073436;28;20025;-79
2024/04/01 06:04:20;;;;;;;6.07;3.50;;;10.50;99.90;;;;;;5072679;28;20020;-77
2024/04/01 06:06:46;;;;;;;7.13;3.30;;;10.50;99.90;;;;;;5073997;28;20058;-78
2024/04/01 06:09:12;;;;;;;8.43;3.58;;;10.50;99.90;;;;;;5053259;28;20029;-77
2024/04/01 06:11:38;;;;;;;9.30;3.13;;;10.60;99.90;;;;;;5071992;28;20823;-78
2024/04/01 06:14:04;;;;;;;5.03;2.70;;;10.70;99.90;;;;;;5073179;28;20120;-76
2024/04/01 06:16:30;;;;;;;5.15;2.63;;;10.80;99.90;;;;;;5054432;28;20029;-77
2024/04/01 06:18:55;;;;;;;7.82;2.70;;;10.80;99.90;;;;;;5061559;28;20405;-78
2024/04/01 06:21:21;;;;;;;5.93;2.75;;;10.80;99.90;;;;;;5071701;28;20120;-77
2024/04/01 06:23:47;;;;;;;5.28;2.85;;;10.80;99.90;;;;;;5082576;28;20052;-77
2024/04/01 06:26:13;;;;;;;5.63;2.60;;;10.80;99.90;;;;;;5064016;28;20032;-79
2024/04/01 06:28:39;;;;;;;5.10;2.50;;;10.80;99.90;;;;;;5064213;28;20069;-81
2024/04/01 06:31:05;;;;;;;8.45;2.63;;;10.80;99.90;;;;;;5040811;28;20032;-81
2024/04/01 06:33:33;;;;;;;4.05;2.35;;;10.80;99.90;;;;;;5046621;28;20055;-79
2024/04/01 06:35:59;;;;;;;9.70;2.50;;;10.80;99.90;;;;;;5053473;28;20031;-82
2024/04/01 06:38:25;;;;;;;5.00;2.38;;;10.80;99.90;;;;;;5053837;28;20064;-78
2024/04/01 06:40:51;;;;;;;6.28;2.20;;;10.90;99.90;;;;;;5069857;28;20040;-78
2024/04/01 06:43:16;;;;;;;6.70;3.00;;;11.00;99.90;;;;;;5070889;28;20032;-78
2024/04/01 06:45:52;;;;;;;6.97;2.28;;;11.00;99.90;;;;;;5060701;28;20508;-77
2024/04/01 06:48:17;;;;;;;7.85;2.90;;;11.10;99.90;;;;;;5057014;28;20523;-77
2024/04/01 06:50:43;;;;;;;6.55;2.58;;;11.10;99.90;;;;;;5009899;28;20067;-76
2024/04/01 06:53:09;;;;;;;5.75;2.38;;;11.10;99.90;;;;;;5039035;28;20075;-77
2024/04/01 06:55:34;;;;;;;5.50;2.80;;;11.10;99.90;;;;;;5056467;28;20031;-79
2024/04/01 06:58:00;;;;;;;6.80;2.63;;;11.20;99.90;;;;;;5023445;28;20051;-79
2024/04/01 07:00:26;;;;;;;4.68;2.50;;;11.20;99.90;;;;;;5039307;28;20842;-78
2024/04/01 07:02:51;;;;;;;4.75;2.15;;;11.30;99.90;;;;;;5039712;28;20028;-75
2024/04/01 07:05:17;;;;;;;3.10;2.00;;;11.20;99.90;;;;;;5022948;28;20025;-77
2024/04/01 07:07:43;;;;;;;6.72;2.72;;;11.20;99.90;;;;;;5056037;28;20478;-78
2024/04/01 07:10:08;;;;;;;5.22;2.38;;;11.20;99.90;;;;;;5039820;28;20055;-76
2024/04/01 07:12:34;;;;;;;6.97;2.40;;;11.20;99.90;;;;;;5041390;28;20493;-78
2024/04/01 07:15:00;;;;;;;8.45;2.30;;;11.10;99.90;;;;;;5039769;28;20544;-77
2024/04/01 07:17:25;;;;;;;4.90;2.28;;;11.10;99.90;;;;;;5055461;28;20717;-77
2024/04/01 07:19:52;;;;;;;5.60;2.15;;;11.20;99.90;;;;;;5055917;28;20032;-75
2024/04/01 07:22:18;;;;;;;4.93;2.47;;;11.10;99.90;;;;;;5038721;28;20558;-77
2024/04/01 07:24:44;;;;;;;7.28;2.20;;;11.10;99.90;;;;;;5079574;28;20079;-78
2024/04/01 07:27:10;;;;;;;9.55;3.03;;;11.10;99.90;;;;;;5100946;28;20103;-76
2024/04/01 07:29:36;;;;;;;6.47;2.58;;;11.10;99.90;;;;;;5045963;28;20573;-78
2024/04/01 07:32:01;;;;;;;5.10;1.92;;;11.00;99.90;;;;;;5080574;28;20097;-78
2024/04/01 07:34:27;;;;;;;7.50;2.70;;;11.00;99.90;;;;;;5064329;28;20111;-76
2024/04/01 07:36:53;;;;;;;7.18;2.40;;;11.10;99.90;;;;;;5063426;28;20215;-78
2024/04/01 07:39:18;;;;;;;3.45;2.20;;;11.20;99.90;;;;;;5044832;28;20040;-77
2024/04/01 07:41:44;;;;;;;6.85;2.60;;;11.10;99.90;;;;;;5062762;28;20032;-75
2024/04/01 07:44:10;;;;;;;7.25;2.60;;;11.10;99.90;;;;;;5062169;28;20439;-77
2024/04/01 07:46:35;;;;;;;4.18;2.17;;;11.00;99.90;;;;;;5060425;28;20029;-77
2024/04/01 07:49:01;;;;;;;3.42;2.25;;;11.10;99.90;;;;;;5059490;28;20120;-77
2024/04/01 07:51:27;;;;;;;2.90;1.90;;;11.10;99.90;;;;;;5076655;28;20024;-77
2024/04/01 07:53:52;;;;;;;6.93;2.53;;;11.00;99.90;;;;;;5044988;28;20032;-77
2024/04/01 07:56:19;;;;;;;4.88;2.08;;;11.10;99.90;;;;;;5062116;28;20396;-76
2024/04/01 07:58:45;;;;;;;4.85;2.38;;;11.00;99.90;;;;;;5062021;28;20504;-77
2024/04/01 08:01:13;;;;;;;4.40;2.28;;;10.90;99.90;;;;;;5043570;28;20029;-80
2024/04/01 08:03:38;;;;;;;7.03;2.83;;;10.90;99.90;;;;;;5062577;28;20111;-77
2024/04/01 08:06:04;;;;;;;5.80;2.40;;;11.00;99.90;;;;;;5044746;28;20052;-77
2024/04/01 08:08:30;;;;;;;5.05;2.35;;;11.00;99.90;;;;;;5049817;28;20031;-76
2024/04/01 08:10:56;;;;;;;7.30;2.67;;;11.00;99.90;;;;;;5101467;28;20453;-75
2024/04/01 08:13:22;;;;;;;7.18;2.78;;;11.10;99.90;;;;;;5085340;28;20115;-76
2024/04/01 08:16:00;;;;;;;4.30;2.17;;;11.20;99.90;;;;;;5056300;28;20021;-75
2024/04/01 08:18:26;;;;;;;7.13;2.53;;;11.10;99.90;;;;;;5083638;28;20512;-78
2024/04/01 08:20:51;;;;;;;7.40;2.65;;;11.20;99.90;;;;;;5082049;28;20021;-77
2024/04/01 08:23:17;;;;;;;7.82;2.40;;;11.40;99.90;;;;;;5043061;28;20055;-78
2024/04/01 08:25:43;;;;;;;12.52;2.50;;;11.30;99.90;;;;;;5066694;28;20104;-77
2024/04/01 08:28:08;;;;;;;5.57;2.47;;;11.70;99.90;;;;;;5090116;28;20397;-78
2024/04/01 08:30:34;;;;;;;7.47;2.03;;;11.90;99.90;;;;;;5072504;28;20472;-78
2024/04/01 08:33:00;;;;;;;2.75;2.05;;;11.80;99.90;;;;;;5057481;28;20058;-77
2024/04/01 08:35:25;;;;;;;5.85;2.42;;;11.70;99.90;;;;;;5055638;28;20044;-77
2024/04/01 08:37:51;;;;;;;4.30;1.92;;;11.70;99.90;;;;;;5068740;28;20029;-78
2024/04/01 08:40:17;;;;;;;7.05;2.10;;;11.60;99.90;;;;;;5045620;28;20092;-80
2024/04/01 08:42:46;;;;;;;4.32;1.75;;;11.60;99.90;;;;;;5041456;28;20051;-78
2024/04/01 08:45:14;;;;;;;8.85;2.35;;;11.60;99.90;;;;;;5055009;28;20063;-77
2024/04/01 08:47:44;;;;;;;8.77;2.17;;;11.60;99.90;;;;;;5050491;28;20036;-77
2024/04/01 08:50:22;;;;;;;5.53;2.22;;;11.60;99.90;;;;;;5082423;28;20047;-75
2024/04/01 08:53:02;;;;;;;8.52;2.40;;;11.80;99.90;;;;;;5061354;28;20025;-76
2024/04/01 08:55:28;;;;;;;6.13;2.58;;;12.00;99.90;;;;;;5078628;28;20085;-77
2024/04/01 08:57:56;;;;;;;6.70;1.60;;;11.80;99.90;;;;;;5075674;28;20029;-77
2024/04/01 09:00:22;;;;;;;3.28;1.70;;;11.60;99.90;;;;;;5064961;28;20021;-78
2024/04/01 09:02:48;;;;;;;5.43;2.15;;;11.60;99.90;;;;;;5039062;28;20119;-77
2024/04/01 09:05:14;;;;;;;5.05;1.80;;;11.70;99.90;;;;;;5055912;28;20056;-76
2024/04/01 09:07:40;;;;;;;4.75;1.92;;;11.80;99.90;;;;;;5054809;28;20032;-78
2024/04/01 09:10:06;;;;;;;4.75;2.17;;;12.00;99.90;;;;;;5053889;28;20024;-77
2024/04/01 09:12:33;;;;;;;3.75;2.15;;;12.00;99.90;;;;;;5051643;28;20028;-78
2024/04/01 09:14:59;;;;;;;4.70;1.85;;;12.10;99.90;;;;;;5070293;28;20022;-76
2024/04/01 09:17:26;;;;;;;4.85;2.00;;;12.20;99.90;;;;;;5060396;28;20048;-76
2024/04/01 09:19:52;;;;;;;4.30;2.00;;;12.30;99.90;;;;;;5062121;28;20485;-77
2024/04/01 09:22:18;;;;;;;6.18;2.40;;;12.20;99.90;;;;;;5059395;28;20036;-77
2024/04/01 09:24:45;;;;;;;9.57;2.03;;;12.40;99.90;;;;;;5095128;28;20895;-75
2024/04/01 09:27:11;;;;;;;2.85;1.63;;;12.30;99.90;;;;;;5079863;28;20035;-77
2024/04/01 09:29:36;;;;;;;8.27;2.03;;;12.40;99.90;;;;;;5062634;28;20036;-76
2024/04/01 09:32:03;;;;;;;3.17;1.95;;;12.50;99.90;;;;;;5052230;28;20024;-76
2024/04/01 09:34:31;;;;;;;6.22;1.67;;;12.60;99.90;;;;;;5066535;28;20032;-80
2024/04/01 09:36:59;;;;;;;3.33;1.50;;;12.60;99.90;;;;;;5061883;28;20028;-79
2024/04/01 09:39:25;;;;;;;7.63;1.70;;;12.80;99.90;;;;;;5063965;28;20130;-80
2024/04/01 09:41:51;;;;;;;3.33;1.83;;;12.90;99.90;;;;;;5094769;28;20020;-78
2024/04/01 09:44:17;;;;;;;6.68;1.90;;;12.90;99.90;;;;;;5061200;28;20051;-78
2024/04/01 09:46:43;;;;;;;5.50;1.90;;;13.00;99.90;;;;;;5061407;28;20516;-78
2024/04/01 09:49:11;;;;;;;3.95;1.50;;;13.00;99.90;;;;;;5095865;28;20095;-77
2024/04/01 09:51:37;;;;;;;9.40;2.17;;;13.10;99.90;;;;;;5058156;28;20028;-79
2024/04/01 09:54:03;;;;;;;4.85;2.05;;;13.20;99.90;;;;;;5086735;28;20089;-67
2024/04/01 09:57:07;;;;;;;5.82;1.70;;;13.20;99.90;;;;;;5058841;28;20020;-78
2024/04/01 09:59:56;;;;;;;4.82;1.65;;;13.70;99.90;;;;;;5088451;28;20028;-77
2024/04/01 10:02:39;;;;;;;8.68;2.20;;;13.50;99.90;;;;;;5093601;28;20020;-79
2024/04/01 10:05:08;;;;;;;4.88;2.38;;;13.20;99.90;;;;;;5077270;28;20050;-77
2024/04/01 10:08:10;;;;;;;5.78;2.38;;;13.20;99.90;;;;;;5075886;28;20036;-75
2024/04/01 10:11:00;;;;;;;6.05;2.67;;;13.20;99.90;;;;;;5092855;28;20070;-75
2024/04/01 10:13:54;;;;;;;8.02;1.90;;;13.20;99.90;;;;;;5085493;28;20028;-77
2024/04/01 10:16:57;;;;;;;6.70;2.55;;;13.10;99.90;;;;;;5074152;28;20078;-77
2024/04/01 10:19:49;;;;;;;4.53;2.00;;;13.10;99.90;;;;;;5032218;28;20048;-76
2024/04/01 10:22:22;;;;;;;4.50;1.92;;;13.10;99.90;;;;;;5088325;28;20605;-75
2024/04/01 10:25:18;;;;;;;4.68;1.85;;;13.20;99.90;;;;;;5077590;28;20031;-78
2024/04/01 10:28:12;;;;;;;3.88;1.75;;;13.40;99.90;;;;;;5099110;28;20031;-78
2024/04/01 10:30:59;;;;;;;4.85;2.00;;;13.30;99.90;;;;;;5093508;28;20028;-76
2024/04/01 10:33:56;;;;;;;3.35;1.92;;;13.40;99.90;;;;;;5074175;28;20043;-76
2024/04/01 10:36:43;;;;;;;4.88;1.65;;;13.80;99.90;;;;;;5086964;28;20020;-77
2024/04/01 10:39:50;;;;;;;2.92;1.80;;;14.10;99.90;;;;;;5075050;28;20040;-78
2024/04/01 10:42:55;;;;;;;4.63;1.70;;;14.50;99.90;;;;;;5079533;28;20039;-78
2024/04/01 10:45:20;;;;;;;4.28;1.70;;;14.90;99.90;;;;;;5061483;28;20032;-78
2024/04/01 10:48:04;;;;;;;6.00;1.58;;;14.90;99.90;;;;;;5079216;28;20035;-77
2024/04/01 10:50:57;;;;;;;7.45;1.70;;;15.00;99.90;;;;;;5103304;28;20036;-77
2024/04/01 10:53:55;;;;;;;3.28;1.88;;;15.10;99.90;;;;;;5087605;28;20219;-76
2024/04/01 10:57:06;;;;;;;4.95;1.60;;;15.10;99.90;;;;;;5098050;28;20052;-77
2024/04/01 10:59:44;;;;;;;4.32;2.20;;;15.70;99.90;;;;;;5055605;28;20103;-79
2024/04/01 11:02:33;;;;;;;4.13;1.50;;;16.60;99.90;;;;;;5092681;28;20084;-77
2024/04/01 11:05:30;;;;;;;2.40;1.25;;;17.20;99.90;;;;;;5102386;28;20020;-78
2024/04/01 11:08:23;;;;;;;2.65;1.15;;;17.20;99.90;;;;;;5091282;28;20442;-76
2024/04/01 11:11:12;;;;;;;3.40;1.42;;;17.70;99.90;;;;;;5082049;28;20389;-78
2024/04/01 11:13:39;;;;;;;6.22;1.52;;;18.10;99.90;;;;;;5098488;28;20032;-78
2024/04/01 11:16:07;;;;;;;7.57;1.25;;;18.20;99.90;;;;;;5079932;28;20397;-76
2024/04/01 11:19:24;;;;;;;4.50;1.42;;;19.10;99.90;;;;;;5079081;28;20044;-76
2024/04/01 11:21:50;;;;;;;4.00;1.17;;;18.30;99.90;;;;;;5034024;28;20037;-78
2024/04/01 11:24:28;;;;;;;2.65;1.00;;;17.10;99.90;;;;;;5077568;28;20054;-78
2024/04/01 11:27:09;;;;;;;6.50;0.85;;;16.70;99.90;;;;;;5078530;28;20034;-77
2024/04/01 11:29:41;;;;;;;5.00;1.42;;;16.30;99.90;;;;;;5097449;28;20043;-76
2024/04/01 11:32:17;;;;;;;2.30;1.00;;;16.70;99.90;;;;;;5078759;28;20358;-78
2024/04/01 11:34:53;;;;;;;4.82;0.85;;;18.60;99.90;;;;;;5041865;28;20559;-77
2024/04/01 11:37:43;;;;;;;2.30;0.73;;;19.80;99.90;;;;;;5079088;28;20050;-77
2024/04/01 11:40:11;;;;;;;3.72;1.23;;;18.40;99.90;;;;;;5097067;28;20024;-74
2024/04/01 11:42:42;;;;;;;2.92;1.05;;;19.30;99.90;;;;;;5078256;28;20031;-76
2024/04/01 11:45:11;;;;;;;4.63;0.90;;;19.80;99.40;;;;;;5095774;28;20109;-77
2024/04/01 11:47:40;;;;;;;1.90;0.55;;;19.20;99.60;;;;;;5079142;28;20115;-76
2024/04/01 11:50:16;;;;;;;2.65;0.63;;;19.30;99.60;;;;;;5077842;28;20488;-77
2024/04/01 11:52:42;;;;;;;4.20;0.93;;;19.60;99.00;;;;;;5060669;28;20020;-76
2024/04/01 11:55:12;;;;;;;4.00;0.93;;;19.50;99.30;;;;;;5044974;28;20050;-76
2024/04/01 11:57:39;;;;;;;4.50;0.82;;;19.80;98.50;;;;;;5061394;28;20055;-78
2024/04/01 12:00:09;;;;;;;4.00;1.00;;;20.40;97.80;;;;;;5096762;28;20133;-81
2024/04/01 12:02:35;;;;;;;5.45;0.70;;;20.80;97.50;;;;;;5077871;28;20020;-76
2024/04/01 12:05:05;;;;;;;3.60;1.10;;;21.00;97.20;;;;;;5078844;28;20097;-80
2024/04/01 12:07:35;;;;;;;9.43;0.80;;;21.20;96.30;;;;;;5061385;28;20024;-77
2024/04/01 12:10:05;;;;;;;6.72;0.95;;;21.40;95.70;;;;;;5095800;28;20032;-77
2024/04/01 12:12:33;;;;;;;8.57;0.88;;;21.50;95.60;;;;;;5062984;28;20445;-77
2024/04/01 12:15:04;;;;;;;2.05;0.90;;;21.30;95.80;;;;;;5077390;28;20031;-76
2024/04/01 12:17:32;;;;;;;6.03;1.23;;;21.30;95.80;;;;;;5080104;28;20396;-78
2024/04/01 12:20:01;;;;;;;4.78;1.10;;;21.30;95.20;;;;;;5082510;28;20028;-77
2024/04/01 12:22:28;;;;;;;6.95;1.23;;;21.30;94.90;;;;;;5079213;28;20035;-76
2024/04/01 12:24:57;;;;;;;5.68;0.85;;;22.10;94.30;;;;;;5061854;28;20113;-78
2024/04/01 12:27:22;;;;;;;3.90;0.90;;;22.80;93.10;;;;;;5078176;28;20109;-78
2024/04/01 12:29:51;;;;;;;3.17;0.60;;;23.00;92.60;;;;;;5045437;28;20036;-77
2024/04/01 12:32:17;;;;;;;4.85;1.00;;;22.60;92.40;;;;;;5066541;28;20166;-78
2024/04/01 12:34:44;;;;;;;3.00;0.98;;;22.40;92.30;;;;;;5078582;28;20485;-77
2024/04/01 12:37:09;;;;;;;6.50;1.20;;;23.40;91.90;;;;;;5048166;28;20497;-80
2024/04/01 12:39:48;;;;;;;3.33;0.90;;;23.30;90.10;;;;;;5077605;28;20043;-77
2024/04/01 12:42:17;;;;;;;5.32;0.75;;;22.50;88.80;;;;;;5060983;28;20030;-78
2024/04/01 12:44:44;;;;;;;4.07;1.13;;;21.50;90.70;;;;;;5094536;28;20089;-78
2024/04/01 12:47:13;;;;;;;4.20;0.68;;;22.00;90.10;;;;;;5077423;28;20038;-79
2024/04/01 12:49:40;;;;;;;7.03;1.02;;;20.40;91.10;;;;;;5061144;28;20028;-77
2024/04/01 12:52:07;;;;;;;4.30;0.68;;;20.30;91.20;;;;;;5057382;28;20489;-76
2024/04/01 12:55:08;;;;;;;4.18;0.77;;;22.10;89.10;;;;;;5072952;28;20481;-76